createdAt,value
2018-06-19T00:00:47.578Z,19.80
2018-06-19T00:04:56.941Z,19.70
2018-06-19T00:07:01.420Z,19.70
2018-06-19T00:09:08.706Z,19.60
2018-06-19T00:11:13.266Z,19.60
2018-06-19T00:15:21.959Z,19.60
2018-06-19T00:17:27.408Z,19.50
2018-06-19T00:19:33.377Z,19.50
2018-06-19T00:21:48.699Z,19.40
2018-06-19T00:23:53.106Z,19.40
2018-06-19T00:25:57.562Z,19.40
2018-06-19T00:28:02.048Z,19.40
2018-06-19T00:30:07.195Z,19.40
2018-06-19T00:32:12.465Z,19.30
2018-06-19T00:34:16.940Z,19.30
2018-06-19T00:36:21.343Z,19.30
2018-06-19T00:38:25.818Z,19.20
2018-06-19T00:40:30.391Z,19.20
2018-06-19T00:42:34.823Z,19.10
2018-06-19T00:44:39.318Z,19.10
2018-06-19T00:46:48.623Z,19.00
2018-06-19T00:48:53.039Z,19.10
2018-06-19T00:50:57.684Z,19.00
2018-06-19T00:53:02.110Z,19.00
2018-06-19T00:55:06.621Z,19.00
2018-06-19T00:59:16.343Z,18.90
2018-06-19T01:01:21.159Z,18.90
2018-06-19T01:03:25.737Z,18.80
2018-06-19T01:05:31.240Z,18.80
2018-06-19T01:07:35.768Z,18.80
2018-06-19T01:09:41.060Z,18.80
2018-06-19T01:11:45.554Z,18.80
2018-06-19T01:13:50.106Z,18.70
2018-06-19T01:15:54.615Z,18.70
2018-06-19T01:17:59.086Z,18.60
2018-06-19T01:20:05.821Z,18.60
2018-06-19T01:22:10.379Z,18.60
2018-06-19T01:24:14.872Z,18.60
2018-06-19T01:26:20.546Z,18.50
2018-06-19T01:28:27.193Z,18.50
2018-06-19T01:30:36.756Z,18.50
2018-06-19T01:32:43.522Z,18.40
2018-06-19T01:34:49.992Z,18.40
2018-06-19T01:36:58.403Z,18.40
2018-06-19T01:39:04.813Z,18.30
2018-06-19T01:41:11.998Z,18.30
2018-06-19T01:43:18.748Z,18.30
2018-06-19T01:45:25.335Z,18.30
2018-06-19T01:47:33.318Z,18.20
2018-06-19T01:49:40.527Z,18.20
2018-06-19T01:51:48.732Z,18.10
2018-06-19T01:53:56.025Z,18.10
2018-06-19T01:56:03.732Z,18.10
2018-06-19T01:58:08.212Z,18.10
2018-06-19T02:00:13.256Z,18.00
2018-06-19T02:02:19.195Z,18.00
2018-06-19T02:04:25.783Z,18.00
2018-06-19T02:06:31.823Z,17.90
2018-06-19T02:08:40.188Z,17.90
2018-06-19T02:10:46.034Z,17.90
2018-06-19T02:12:51.492Z,17.80
2018-06-19T02:14:59.008Z,17.80
2018-06-19T02:17:06.710Z,17.80
2018-06-19T02:19:11.111Z,17.80
2018-06-19T02:21:15.570Z,17.70
2018-06-19T02:23:20.052Z,17.70
2018-06-19T02:25:24.422Z,17.70
2018-06-19T02:27:28.820Z,17.70
2018-06-19T02:29:33.439Z,17.70
2018-06-19T02:31:37.824Z,17.60
2018-06-19T02:33:42.274Z,17.60
2018-06-19T02:35:46.748Z,17.60
2018-06-19T02:37:51.250Z,17.60
2018-06-19T02:39:55.712Z,17.60
2018-06-19T02:42:00.122Z,17.50
2018-06-19T02:44:05.420Z,17.50
2018-06-19T02:46:09.848Z,17.50
2018-06-19T02:48:14.250Z,17.50
2018-06-19T02:50:18.635Z,17.50
2018-06-19T02:52:23.103Z,17.50
2018-06-19T02:54:27.486Z,17.50
2018-06-19T02:56:31.944Z,17.40
2018-06-19T02:58:36.321Z,17.40
2018-06-19T03:00:40.759Z,17.40
2018-06-19T03:02:45.327Z,17.40
2018-06-19T03:04:50.073Z,17.40
2018-06-19T03:06:54.479Z,17.40
2018-06-19T03:08:58.903Z,17.30
2018-06-19T03:11:03.306Z,17.30
2018-06-19T03:13:07.739Z,17.30
2018-06-19T03:15:12.110Z,17.30
2018-06-19T03:17:16.582Z,17.30
2018-06-19T03:19:20.998Z,17.30
2018-06-19T03:21:25.466Z,17.30
2018-06-19T03:25:33.979Z,17.30
2018-06-19T03:27:38.394Z,17.20
2018-06-19T03:29:42.778Z,17.30
2018-06-19T03:31:47.209Z,17.30
2018-06-19T03:33:51.879Z,17.30
2018-06-19T03:35:56.326Z,17.30
2018-06-19T03:38:00.841Z,17.30
2018-06-19T03:40:05.298Z,17.30
2018-06-19T03:42:09.747Z,17.30
2018-06-19T03:44:14.408Z,17.30
2018-06-19T03:46:18.822Z,17.30
2018-06-19T03:48:23.276Z,17.30
2018-06-19T03:50:27.698Z,17.30
2018-06-19T03:52:32.142Z,17.30
2018-06-19T03:54:36.510Z,17.30
2018-06-19T03:56:40.926Z,17.40
2018-06-19T03:58:45.385Z,17.40
2018-06-19T04:00:49.824Z,17.40
2018-06-19T04:02:54.812Z,17.40
2018-06-19T04:05:00.001Z,17.40
2018-06-19T04:07:06.914Z,17.40
2018-06-19T04:09:14.128Z,17.40
2018-06-19T04:11:21.248Z,17.40
2018-06-19T04:13:27.009Z,17.50
2018-06-19T04:15:31.906Z,17.50
2018-06-19T04:17:37.046Z,17.50
2018-06-19T04:19:42.217Z,17.50
2018-06-19T04:21:48.235Z,17.60
2018-06-19T04:23:53.022Z,17.60
2018-06-19T04:25:59.097Z,17.60
2018-06-19T04:28:04.523Z,17.70
2018-06-19T04:30:09.311Z,17.70
2018-06-19T04:32:13.859Z,17.70
2018-06-19T04:34:18.311Z,17.80
2018-06-19T04:36:22.679Z,17.80
2018-06-19T04:38:27.074Z,17.90
2018-06-19T04:40:31.462Z,17.90
2018-06-19T04:44:39.966Z,18.00
2018-06-19T04:46:44.412Z,18.00
2018-06-19T04:48:49.329Z,18.10
2018-06-19T04:50:55.007Z,18.10
2018-06-19T04:52:59.435Z,18.10
2018-06-19T04:55:03.798Z,18.20
2018-06-19T04:57:08.198Z,18.20
2018-06-19T04:59:12.591Z,18.30
2018-06-19T05:01:17.781Z,18.30
2018-06-19T05:03:22.235Z,18.30
2018-06-19T05:05:26.619Z,18.40
2018-06-19T05:07:31.029Z,18.40
2018-06-19T05:09:35.590Z,18.40
2018-06-19T05:11:39.973Z,18.50
2018-06-19T05:13:44.390Z,18.50
2018-06-19T05:15:48.778Z,18.50
2018-06-19T05:17:53.179Z,18.60
2018-06-19T05:22:02.771Z,18.60
2018-06-19T05:24:07.201Z,18.70
2018-06-19T05:28:15.761Z,18.70
2018-06-19T05:30:20.206Z,18.80
2018-06-19T05:32:24.621Z,18.70
2018-06-19T05:34:29.334Z,18.80
2018-06-19T05:36:33.734Z,18.80
2018-06-19T05:38:38.864Z,18.80
2018-06-19T05:40:43.376Z,18.90
2018-06-19T05:42:47.891Z,18.90
2018-06-19T05:44:52.282Z,18.90
2018-06-19T05:46:56.764Z,19.00
2018-06-19T05:49:01.171Z,19.00
2018-06-19T05:53:10.230Z,19.00
2018-06-19T05:55:15.510Z,19.10
2018-06-19T05:57:19.976Z,19.10
2018-06-19T05:59:24.388Z,19.10
2018-06-19T06:01:28.910Z,19.10
2018-06-19T06:03:33.339Z,19.20
2018-06-19T06:05:37.848Z,19.20
2018-06-19T06:07:42.186Z,19.20
2018-06-19T06:09:46.603Z,19.20
2018-06-19T06:11:51.064Z,19.30
2018-06-19T06:13:55.499Z,19.30
2018-06-19T06:15:59.907Z,19.30
2018-06-19T06:18:04.841Z,19.30
2018-06-19T06:20:09.398Z,19.40
2018-06-19T06:22:14.197Z,19.40
2018-06-19T06:24:19.324Z,19.40
2018-06-19T06:26:23.724Z,19.40
2018-06-19T06:28:28.144Z,19.40
2018-06-19T06:30:32.583Z,19.50
2018-06-19T06:36:45.287Z,19.50
2018-06-19T06:38:49.711Z,19.60
2018-06-19T06:40:54.122Z,19.60
2018-06-19T06:42:58.563Z,19.60
2018-06-19T06:45:02.968Z,19.60
2018-06-19T06:47:07.968Z,19.60
2018-06-19T06:49:12.387Z,19.60
2018-06-19T06:51:16.804Z,19.70
2018-06-19T06:53:21.338Z,19.70
2018-06-19T06:55:29.479Z,19.70
2018-06-19T06:57:33.966Z,19.70
2018-06-19T06:59:38.414Z,19.70
2018-06-19T07:01:42.885Z,19.70
2018-06-19T07:03:47.386Z,19.80
2018-06-19T07:05:52.500Z,19.80
2018-06-19T07:10:01.172Z,19.80
2018-06-19T07:12:06.471Z,19.90
2018-06-19T07:14:10.965Z,19.90
2018-06-19T07:16:15.415Z,19.90
2018-06-19T07:18:19.834Z,19.90
2018-06-19T07:20:24.259Z,19.90
2018-06-19T07:22:28.776Z,19.90
2018-06-19T07:24:33.222Z,20.00
2018-06-19T07:26:37.967Z,20.00
2018-06-19T07:28:42.440Z,20.10
2018-06-19T07:30:46.892Z,20.10
2018-06-19T07:32:52.430Z,20.10
2018-06-19T07:34:56.898Z,20.20
2018-06-19T07:37:01.284Z,20.20
2018-06-19T07:39:09.607Z,20.20
2018-06-19T07:41:14.016Z,20.30
2018-06-19T07:43:18.522Z,20.30
2018-06-19T07:45:22.951Z,20.40
2018-06-19T07:47:27.373Z,20.40
2018-06-19T07:49:32.906Z,20.40
2018-06-19T07:51:37.342Z,20.40
2018-06-19T07:53:41.871Z,20.50
2018-06-19T07:55:46.314Z,20.50
2018-06-19T07:57:50.754Z,20.60
2018-06-19T07:59:55.259Z,20.60
2018-06-19T08:01:59.693Z,20.60
2018-06-19T08:04:04.148Z,20.60
2018-06-19T08:06:08.571Z,20.70
2018-06-19T08:08:12.959Z,20.70
2018-06-19T08:10:17.418Z,20.70
2018-06-19T08:12:21.846Z,20.80
2018-06-19T08:14:26.358Z,20.80
2018-06-19T08:16:31.018Z,20.80
2018-06-19T08:18:35.774Z,20.80
2018-06-19T08:20:40.327Z,20.80
2018-06-19T08:22:44.865Z,20.80
2018-06-19T08:24:49.290Z,20.90
2018-06-19T08:26:54.125Z,20.90
2018-06-19T08:28:58.625Z,20.90
2018-06-19T08:31:03.142Z,20.90
2018-06-19T08:33:07.807Z,20.90
2018-06-19T08:35:13.125Z,21.00
2018-06-19T08:37:17.541Z,21.00
2018-06-19T08:39:21.968Z,21.00
2018-06-19T08:41:26.377Z,21.00
2018-06-19T08:43:30.852Z,21.10
2018-06-19T08:45:35.297Z,21.10
2018-06-19T08:47:39.720Z,21.10
2018-06-19T08:49:44.165Z,21.20
2018-06-19T08:51:48.569Z,21.10
2018-06-19T08:53:53.250Z,21.10
2018-06-19T08:55:57.728Z,21.20
2018-06-19T08:58:02.133Z,21.20
2018-06-19T09:00:06.682Z,21.20
2018-06-19T09:02:11.122Z,21.20
2018-06-19T09:04:15.601Z,21.30
2018-06-19T09:06:20.143Z,21.30
2018-06-19T09:08:24.709Z,21.30
2018-06-19T09:10:29.227Z,21.30
2018-06-19T09:12:33.680Z,21.30
2018-06-19T09:14:38.102Z,21.30
2018-06-19T09:16:42.535Z,21.30
2018-06-19T09:18:46.924Z,21.30
2018-06-19T09:22:55.719Z,21.30
2018-06-19T09:25:00.218Z,21.40
2018-06-19T09:27:04.609Z,21.40
2018-06-19T09:29:09.002Z,21.40
2018-06-19T09:31:13.455Z,21.40
2018-06-19T09:33:18.211Z,21.40
2018-06-19T09:35:22.635Z,21.40
2018-06-19T09:37:27.059Z,21.40
2018-06-19T09:39:32.099Z,21.40
2018-06-19T09:43:40.733Z,21.50
2018-06-19T09:45:45.910Z,21.50
2018-06-19T09:47:50.371Z,21.50
2018-06-19T09:49:55.959Z,21.50
2018-06-19T09:52:00.475Z,21.50
2018-06-19T09:54:05.071Z,21.50
2018-06-19T09:56:09.678Z,21.50
2018-06-19T09:58:14.099Z,21.50
2018-06-19T10:00:49.303Z,21.60
2018-06-19T10:02:53.895Z,21.60
2018-06-19T10:04:58.640Z,21.60
2018-06-19T10:07:03.115Z,21.60
2018-06-19T10:09:09.523Z,21.60
2018-06-19T10:11:14.074Z,21.60
2018-06-19T10:15:37.356Z,21.60
2018-06-19T10:17:41.833Z,21.70
2018-06-19T10:19:46.326Z,21.70
2018-06-19T10:21:50.856Z,21.70
2018-06-19T10:23:56.210Z,21.70
2018-06-19T10:26:00.650Z,21.70
2018-06-19T10:28:05.271Z,21.70
2018-06-19T10:30:09.690Z,21.80
2018-06-19T10:32:14.230Z,21.80
2018-06-19T10:34:18.702Z,21.80
2018-06-19T10:36:23.183Z,21.80
2018-06-19T10:38:28.000Z,21.90
2018-06-19T10:40:32.470Z,21.90
2018-06-19T10:42:37.053Z,21.90
2018-06-19T10:44:41.659Z,21.90
2018-06-19T10:46:46.418Z,21.90
2018-06-19T10:48:50.943Z,22.00
2018-06-19T10:50:56.519Z,22.00
2018-06-19T10:53:00.931Z,22.00
2018-06-19T10:55:06.205Z,22.10
2018-06-19T10:57:10.731Z,22.10
2018-06-19T10:59:15.178Z,22.10
2018-06-19T11:01:19.622Z,22.10
2018-06-19T11:03:24.649Z,22.10
2018-06-19T11:05:29.057Z,22.10
2018-06-19T11:07:33.522Z,22.20
2018-06-19T11:11:42.427Z,22.20
2018-06-19T11:13:47.032Z,22.20
2018-06-19T11:15:51.455Z,22.30
2018-06-19T11:17:57.691Z,22.30
2018-06-19T11:20:02.195Z,22.30
2018-06-19T11:22:06.963Z,22.40
2018-06-19T11:24:11.451Z,22.50
2018-06-19T11:28:22.613Z,22.50
2018-06-19T11:30:27.337Z,22.60
2018-06-19T11:32:31.995Z,22.70
2018-06-19T11:34:40.885Z,22.70
2018-06-19T11:36:46.917Z,22.80
2018-06-19T11:38:53.211Z,22.80
2018-06-19T11:40:57.851Z,22.90
2018-06-19T11:43:02.572Z,22.90
2018-06-19T11:45:07.414Z,23.00
2018-06-19T11:47:11.880Z,23.10
2018-06-19T11:49:17.086Z,23.10
2018-06-19T11:53:25.897Z,23.20
2018-06-19T11:55:30.320Z,23.20
2018-06-19T11:57:34.806Z,23.20
2018-06-19T11:59:39.487Z,23.30
2018-06-19T12:01:44.016Z,23.30
2018-06-19T12:03:49.061Z,23.30
2018-06-19T12:05:53.440Z,23.30
2018-06-19T12:07:57.910Z,23.30
2018-06-19T12:10:02.342Z,23.40
2018-06-19T12:12:06.785Z,23.40
2018-06-19T12:14:11.986Z,23.40
2018-06-19T12:18:21.582Z,23.40
2018-06-19T12:20:26.472Z,23.40
2018-06-19T12:22:31.340Z,23.40
2018-06-19T12:24:35.757Z,23.40
2018-06-19T12:26:40.227Z,23.50
2018-06-19T12:28:45.759Z,23.50
2018-06-19T12:30:50.330Z,23.50
2018-06-19T12:32:54.750Z,23.50
2018-06-19T12:34:59.167Z,23.50
2018-06-19T12:37:03.667Z,23.50
2018-06-19T12:41:14.580Z,23.60
2018-06-19T12:43:19.066Z,23.60
2018-06-19T12:45:23.491Z,23.70
2018-06-19T12:47:28.639Z,23.70
2018-06-19T12:50:48.010Z,23.70
2018-06-19T12:53:09.372Z,23.80
2018-06-19T12:56:24.286Z,23.80
2018-06-19T12:58:28.767Z,23.90
2018-06-19T13:00:33.218Z,23.90
2018-06-19T13:02:37.711Z,23.90
2018-06-19T13:04:59.338Z,24.00
2018-06-19T13:07:03.760Z,24.10
2018-06-19T13:09:09.085Z,24.10
2018-06-19T13:11:13.532Z,24.20
2018-06-19T13:13:35.156Z,24.20
2018-06-19T13:15:39.567Z,24.30
2018-06-19T13:18:01.087Z,24.40
2018-06-19T13:20:22.362Z,24.40
2018-06-19T13:22:26.899Z,24.40
2018-06-19T13:24:31.314Z,24.50
2018-06-19T13:26:35.723Z,24.50
2018-06-19T13:30:05.903Z,24.50
2018-06-19T13:32:10.358Z,24.50
2018-06-19T13:34:14.890Z,24.60
2018-06-19T13:36:19.310Z,24.60
2018-06-19T13:38:23.796Z,24.60
2018-06-19T13:41:15.932Z,24.70
2018-06-19T13:44:37.092Z,24.70
2018-06-19T13:46:41.961Z,24.80
2018-06-19T13:48:46.524Z,24.80
2018-06-19T13:50:51.241Z,24.80
2018-06-19T13:52:55.925Z,24.80
2018-06-19T13:57:31.893Z,24.80
2018-06-19T13:59:36.339Z,24.80
2018-06-19T14:03:45.837Z,24.80
2018-06-19T14:05:50.560Z,24.80
2018-06-19T14:08:06.761Z,24.80
2018-06-19T14:10:32.192Z,24.80
2018-06-19T14:13:03.038Z,24.80
2018-06-19T14:15:08.035Z,24.80
2018-06-19T14:17:13.206Z,24.70
2018-06-19T14:19:17.699Z,24.80
2018-06-19T14:21:22.544Z,24.80
2018-06-19T14:25:32.392Z,24.80
2018-06-19T14:27:36.873Z,24.80
2018-06-19T14:31:45.753Z,24.80
2018-06-19T14:33:50.305Z,24.80
2018-06-19T14:35:55.210Z,24.80
2018-06-19T14:37:59.619Z,24.80
2018-06-19T14:40:04.559Z,24.80
2018-06-19T14:42:09.747Z,24.80
2018-06-19T14:44:14.354Z,24.80
2018-06-19T14:46:18.769Z,24.80
2018-06-19T14:48:23.223Z,24.80
2018-06-19T14:50:27.664Z,24.80
2018-06-19T14:52:32.051Z,24.80
2018-06-19T14:54:36.495Z,24.80
2018-06-19T14:56:40.921Z,24.80
2018-06-19T14:58:45.460Z,24.70
2018-06-19T15:00:49.867Z,24.80
2018-06-19T15:02:55.372Z,24.80
2018-06-19T15:04:59.894Z,24.90
2018-06-19T15:07:04.348Z,24.90
2018-06-19T15:09:11.595Z,24.90
2018-06-19T15:11:16.058Z,24.90
2018-06-19T15:13:20.469Z,24.90
2018-06-19T15:15:25.089Z,24.90
2018-06-19T15:17:30.330Z,25.00
2018-06-19T15:19:35.375Z,25.00
2018-06-19T15:21:40.937Z,25.00
2018-06-19T15:25:49.804Z,25.10
2018-06-19T15:30:00.440Z,25.10
2018-06-19T15:32:04.868Z,25.10
2018-06-19T15:36:15.097Z,25.20
2018-06-19T15:38:19.625Z,25.20
2018-06-19T15:40:24.280Z,25.20
2018-06-19T15:42:28.986Z,25.30
2018-06-19T15:44:33.910Z,25.30
2018-06-19T15:46:38.915Z,25.30
2018-06-19T15:50:49.571Z,25.40
2018-06-19T15:52:54.370Z,25.50
2018-06-19T15:54:59.074Z,25.50
2018-06-19T15:57:04.331Z,25.60
2018-06-19T15:59:08.818Z,25.70
2018-06-19T16:01:13.336Z,25.70
2018-06-19T16:03:19.148Z,25.70
2018-06-19T16:05:23.990Z,25.80
2018-06-19T16:07:28.577Z,25.90
2018-06-19T16:09:33.121Z,26.00
2018-06-19T16:11:40.090Z,26.10
2018-06-19T16:13:44.924Z,26.20
2018-06-19T16:15:56.976Z,26.20
2018-06-19T16:18:01.959Z,26.20
2018-06-19T16:20:06.447Z,26.30
2018-06-19T16:22:11.768Z,26.30
2018-06-19T16:24:17.097Z,26.30
2018-06-19T16:26:21.843Z,26.30
2018-06-19T16:28:26.636Z,26.30
2018-06-19T16:30:31.943Z,26.40
2018-06-19T16:32:36.388Z,26.30
2018-06-19T16:34:40.818Z,26.30
2018-06-19T16:36:45.265Z,26.30
2018-06-19T16:38:49.740Z,26.30
2018-06-19T16:40:54.202Z,26.30
2018-06-19T16:42:59.049Z,26.20
2018-06-19T16:45:03.567Z,26.20
2018-06-19T16:47:08.101Z,26.20
2018-06-19T16:49:12.755Z,26.20
2018-06-19T16:51:17.294Z,26.20
2018-06-19T16:53:22.069Z,26.20
2018-06-19T16:57:30.710Z,26.20
2018-06-19T16:59:35.922Z,26.20
2018-06-19T17:01:40.458Z,26.20
2018-06-19T17:03:45.139Z,26.20
2018-06-19T17:05:49.656Z,26.20
2018-06-19T17:07:54.498Z,26.20
2018-06-19T17:12:04.066Z,26.10
2018-06-19T17:14:08.534Z,26.10
2018-06-19T17:16:13.091Z,26.10
2018-06-19T17:18:17.646Z,26.10
2018-06-19T17:20:23.142Z,26.10
2018-06-19T17:22:27.646Z,26.10
2018-06-19T17:24:32.902Z,26.00
2018-06-19T17:28:42.329Z,26.00
2018-06-19T17:30:46.766Z,26.00
2018-06-19T17:32:51.701Z,26.00
2018-06-19T17:37:01.511Z,25.90
2018-06-19T17:39:10.120Z,25.90
2018-06-19T17:41:14.836Z,25.90
2018-06-19T17:43:19.829Z,25.90
2018-06-19T17:45:24.326Z,25.90
2018-06-19T17:47:28.803Z,25.90
2018-06-19T17:49:35.043Z,25.80
2018-06-19T17:51:39.833Z,25.80
2018-06-19T17:53:44.293Z,25.80
2018-06-19T17:55:49.790Z,25.80
2018-06-19T17:57:54.283Z,25.80
2018-06-19T17:59:59.883Z,25.80
2018-06-19T18:02:04.417Z,25.80
2018-06-19T18:04:08.800Z,25.80
2018-06-19T18:06:13.464Z,25.80
2018-06-19T18:08:19.001Z,25.70
2018-06-19T18:12:28.664Z,25.70
2018-06-19T18:14:33.269Z,25.70
2018-06-19T18:16:37.743Z,25.70
2018-06-19T18:18:42.510Z,25.70
2018-06-19T18:22:51.834Z,25.70
2018-06-19T18:24:56.787Z,25.60
2018-06-19T18:27:01.227Z,25.60
2018-06-19T18:29:05.787Z,25.60
2018-06-19T18:31:10.237Z,25.60
2018-06-19T18:33:14.681Z,25.60
2018-06-19T18:35:20.236Z,25.50
2018-06-19T18:37:24.742Z,25.50
2018-06-19T18:39:29.147Z,25.50
2018-06-19T18:41:33.585Z,25.50
2018-06-19T18:43:37.990Z,25.50
2018-06-19T18:45:42.944Z,25.50
2018-06-19T18:47:47.917Z,25.50
2018-06-19T18:49:52.427Z,25.50
2018-06-19T18:51:57.181Z,25.40
2018-06-19T18:54:01.866Z,25.40
2018-06-19T18:56:06.690Z,25.40
2018-06-19T18:58:12.099Z,25.30
2018-06-19T19:00:16.592Z,25.30
2018-06-19T19:04:26.026Z,25.30
2018-06-19T19:06:30.779Z,25.20
2018-06-19T19:08:35.477Z,25.20
2018-06-19T19:10:45.939Z,25.20
2018-06-19T19:12:50.574Z,25.20
2018-06-19T19:15:01.933Z,25.10
2018-06-19T19:17:11.922Z,25.10
2018-06-19T19:19:18.536Z,25.10
2018-06-19T19:21:23.550Z,25.00
2018-06-19T19:23:29.028Z,25.00
2018-06-19T19:25:33.831Z,25.00
2018-06-19T19:27:44.097Z,24.90
2018-06-19T19:29:49.537Z,24.90
2018-06-19T19:31:54.746Z,24.90
2018-06-19T19:33:59.392Z,24.80
2018-06-19T19:36:04.422Z,24.80
2018-06-19T19:38:14.990Z,24.80
2018-06-19T19:42:24.724Z,24.70
2018-06-19T19:46:38.868Z,24.60
2018-06-19T19:48:48.929Z,24.60
2018-06-19T19:50:54.392Z,24.50
2018-06-19T19:52:59.799Z,24.50
2018-06-19T19:57:15.346Z,24.40
2018-06-19T19:59:20.907Z,24.40
2018-06-19T20:01:29.011Z,24.40
2018-06-19T20:03:33.476Z,24.30
2018-06-19T20:05:37.922Z,24.30
2018-06-19T20:07:42.656Z,24.30
2018-06-19T20:09:47.077Z,24.20
2018-06-19T20:11:51.847Z,24.20
2018-06-19T20:13:56.353Z,24.20
2018-06-19T20:16:01.421Z,24.20
2018-06-19T20:18:06.466Z,24.10
2018-06-19T20:20:12.229Z,24.10
2018-06-19T20:22:17.070Z,24.10
2018-06-19T20:24:21.750Z,24.00
2018-06-19T20:26:26.542Z,24.00
2018-06-19T20:28:31.579Z,24.00
2018-06-19T20:30:36.372Z,23.90
2018-06-19T20:32:41.750Z,23.90
2018-06-19T20:34:46.698Z,23.90
2018-06-19T20:36:51.339Z,23.80
2018-06-19T20:38:55.779Z,23.80
2018-06-19T20:41:01.846Z,23.80
2018-06-19T20:43:06.313Z,23.80
2018-06-19T20:45:10.979Z,23.70
2018-06-19T20:47:15.805Z,23.70
2018-06-19T20:49:21.312Z,23.70
2018-06-19T20:51:27.552Z,23.60
2018-06-19T20:53:32.535Z,23.70
2018-06-19T20:55:40.372Z,23.60
2018-06-19T20:57:47.528Z,23.60
2018-06-19T20:59:55.347Z,23.60
2018-06-19T21:04:05.847Z,23.50
2018-06-19T21:06:10.988Z,23.50
2018-06-19T21:08:16.451Z,23.50
2018-06-19T21:10:21.595Z,23.40
2018-06-19T21:12:26.531Z,23.40
2018-06-19T21:14:31.131Z,23.40
2018-06-19T21:16:36.151Z,23.40
2018-06-19T21:18:42.044Z,23.40
2018-06-19T21:20:47.411Z,23.40
2018-06-19T21:24:57.106Z,23.40
2018-06-19T21:27:02.282Z,23.30
2018-06-19T21:29:06.707Z,23.30
2018-06-19T21:31:11.129Z,23.30
2018-06-19T21:33:15.600Z,23.30
2018-06-19T21:35:19.986Z,23.30
2018-06-19T21:37:29.380Z,23.30
2018-06-19T21:39:33.772Z,23.30
2018-06-19T21:41:38.247Z,23.30
2018-06-19T21:43:42.699Z,23.20
2018-06-19T21:45:47.110Z,23.20
2018-06-19T21:47:51.544Z,23.20
2018-06-19T21:52:00.041Z,23.20
2018-06-19T21:54:05.632Z,23.10
2018-06-19T21:56:10.033Z,23.10
2018-06-19T21:58:14.453Z,23.10
2018-06-19T22:00:18.866Z,23.10
2018-06-19T22:02:28.523Z,23.10
2018-06-19T22:06:37.227Z,23.00
2018-06-19T22:08:52.133Z,23.00
2018-06-19T22:10:56.572Z,23.00
2018-06-19T22:13:02.110Z,22.90
2018-06-19T22:15:06.523Z,22.90
2018-06-19T22:17:10.890Z,22.90
2018-06-19T22:19:15.390Z,22.90
2018-06-19T22:21:19.882Z,22.90
2018-06-19T22:23:24.367Z,22.90
2018-06-19T22:25:28.771Z,22.90
2018-06-19T22:27:33.172Z,22.90
2018-06-19T22:29:37.815Z,22.90
2018-06-19T22:31:42.655Z,22.90
2018-06-19T22:33:49.642Z,22.80
2018-06-19T22:35:54.250Z,22.80
2018-06-19T22:38:00.519Z,22.80
2018-06-19T22:40:06.287Z,22.80
2018-06-19T22:42:13.425Z,22.80
2018-06-19T22:44:19.935Z,22.80
2018-06-19T22:46:24.332Z,22.80
2018-06-19T22:50:33.089Z,22.70
2018-06-19T22:52:37.498Z,22.80
2018-06-19T22:54:42.675Z,22.70
2018-06-19T22:56:47.138Z,22.70
2018-06-19T23:00:55.658Z,22.70
2018-06-19T23:03:04.716Z,22.70
2018-06-19T23:05:09.179Z,22.70
2018-06-19T23:07:13.567Z,22.70
2018-06-19T23:09:18.023Z,22.70
2018-06-19T23:11:22.918Z,22.70
2018-06-19T23:13:27.353Z,22.70
2018-06-19T23:15:31.793Z,22.60
2018-06-19T23:17:36.160Z,22.60
2018-06-19T23:19:40.567Z,22.60
2018-06-19T23:21:47.303Z,22.60
2018-06-19T23:23:57.046Z,22.60
2018-06-19T23:26:01.429Z,22.60
2018-06-19T23:28:05.887Z,22.60
2018-06-19T23:30:10.613Z,22.60
2018-06-19T23:32:15.040Z,22.60
2018-06-19T23:34:19.469Z,22.60
2018-06-19T23:36:23.870Z,22.50
2018-06-19T23:38:28.343Z,22.50
2018-06-19T23:42:36.911Z,22.50
2018-06-19T23:44:41.330Z,22.50
2018-06-19T23:46:45.725Z,22.50
2018-06-19T23:48:50.122Z,22.50
2018-06-19T23:50:54.534Z,22.50
2018-06-19T23:52:58.923Z,22.40
2018-06-19T23:55:03.422Z,22.50
2018-06-19T23:57:07.825Z,22.40
2018-06-19T23:59:12.206Z,22.40
